sensor_id;sensor_type;location;lat;lon;timestamp;pressure;altitude;pressure_sealevel;temperature;humidity
62038;BME280;47991;42.974;12.082;2023-08-21T00:00:08;98079.36;;;20.61;64.44
62038;BME280;47991;42.974;12.082;2023-08-21T00:02:56;98081.15;;;20.70;63.50
62038;BME280;47991;42.974;12.082;2023-08-21T00:05:23;98078.16;;;20.66;64.25
62038;BME280;47991;42.974;12.082;2023-08-21T00:07:50;98085.30;;;20.53;66.45
62038;BME280;47991;42.974;12.082;2023-08-21T00:10:17;98079.13;;;20.43;65.32
62038;BME280;47991;42.974;12.082;2023-08-21T00:12:44;98075.91;;;20.39;65.51
62038;BME280;47991;42.974;12.082;2023-08-21T00:15:11;98075.96;;;20.39;65.04
62038;BME280;47991;42.974;12.082;2023-08-21T00:17:38;98076.77;;;20.34;65.92
62038;BME280;47991;42.974;12.082;2023-08-21T00:20:05;98078.38;;;20.37;64.96
62038;BME280;47991;42.974;12.082;2023-08-21T00:22:32;98075.84;;;20.43;65.03
62038;BME280;47991;42.974;12.082;2023-08-21T00:24:59;98076.10;;;20.36;65.42
62038;BME280;47991;42.974;12.082;2023-08-21T00:27:25;98073.23;;;20.31;65.74
62038;BME280;47991;42.974;12.082;2023-08-21T00:29:52;98074.27;;;20.28;66.13
62038;BME280;47991;42.974;12.082;2023-08-21T00:32:19;98074.14;;;20.27;66.26
62038;BME280;47991;42.974;12.082;2023-08-21T00:34:46;98069.66;;;20.24;66.05
62038;BME280;47991;42.974;12.082;2023-08-21T00:37:12;98071.91;;;20.26;66.54
62038;BME280;47991;42.974;12.082;2023-08-21T00:39:39;98069.63;;;20.25;66.42
62038;BME280;47991;42.974;12.082;2023-08-21T00:42:06;98067.49;;;20.16;66.84
62038;BME280;47991;42.974;12.082;2023-08-21T00:44:33;98069.27;;;20.08;66.84
62038;BME280;47991;42.974;12.082;2023-08-21T00:47:00;98069.96;;;20.02;67.37
62038;BME280;47991;42.974;12.082;2023-08-21T00:49:27;98073.59;;;19.99;67.31
62038;BME280;47991;42.974;12.082;2023-08-21T00:51:55;98071.71;;;19.88;67.80
62038;BME280;47991;42.974;12.082;2023-08-21T00:54:22;98072.83;;;19.82;67.77
62038;BME280;47991;42.974;12.082;2023-08-21T00:56:49;98070.81;;;19.83;67.97
62038;BME280;47991;42.974;12.082;2023-08-21T00:59:22;98069.02;;;19.80;68.00
62038;BME280;47991;42.974;12.082;2023-08-21T01:01:48;98069.05;;;19.82;68.31
62038;BME280;47991;42.974;12.082;2023-08-21T01:04:15;98067.02;;;19.77;68.05
62038;BME280;47991;42.974;12.082;2023-08-21T01:06:42;98067.35;;;19.80;68.17
62038;BME280;47991;42.974;12.082;2023-08-21T01:12:06;98063.36;;;19.78;68.64
62038;BME280;47991;42.974;12.082;2023-08-21T01:15:02;98064.46;;;19.86;69.15
62038;BME280;47991;42.974;12.082;2023-08-21T01:17:30;98069.77;;;19.85;68.51
62038;BME280;47991;42.974;12.082;2023-08-21T01:19:58;98070.10;;;19.88;68.64
62038;BME280;47991;42.974;12.082;2023-08-21T01:22:26;98069.67;;;19.93;68.46
62038;BME280;47991;42.974;12.082;2023-08-21T01:24:54;98068.86;;;19.94;68.47
62038;BME280;47991;42.974;12.082;2023-08-21T01:27:22;98070.32;;;19.82;70.27
62038;BME280;47991;42.974;12.082;2023-08-21T01:29:49;98070.63;;;19.67;69.99
62038;BME280;47991;42.974;12.082;2023-08-21T01:32:48;98070.83;;;19.64;70.29
62038;BME280;47991;42.974;12.082;2023-08-21T01:35:17;98068.82;;;19.68;69.75
62038;BME280;47991;42.974;12.082;2023-08-21T01:37:45;98064.57;;;19.79;69.67
62038;BME280;47991;42.974;12.082;2023-08-21T01:40:13;98064.27;;;19.90;69.68
62038;BME280;47991;42.974;12.082;2023-08-21T01:42:46;98061.80;;;19.98;69.99
62038;BME280;47991;42.974;12.082;2023-08-21T01:45:13;98061.96;;;20.01;69.83
62038;BME280;47991;42.974;12.082;2023-08-21T01:47:39;98058.23;;;20.03;70.24
62038;BME280;47991;42.974;12.082;2023-08-21T01:50:07;98063.16;;;20.02;69.68
62038;BME280;47991;42.974;12.082;2023-08-21T01:52:34;98061.70;;;20.00;69.72
62038;BME280;47991;42.974;12.082;2023-08-21T01:55:01;98066.52;;;19.94;70.21
62038;BME280;47991;42.974;12.082;2023-08-21T01:57:27;98067.39;;;19.92;70.02
62038;BME280;47991;42.974;12.082;2023-08-21T01:59:54;98066.49;;;19.86;70.48
62038;BME280;47991;42.974;12.082;2023-08-21T02:02:21;98067.97;;;19.79;70.29
62038;BME280;47991;42.974;12.082;2023-08-21T02:04:48;98067.00;;;19.80;70.60
62038;BME280;47991;42.974;12.082;2023-08-21T02:07:15;98065.95;;;19.77;70.67
62038;BME280;47991;42.974;12.082;2023-08-21T02:09:42;98067.70;;;19.78;70.94
62038;BME280;47991;42.974;12.082;2023-08-21T02:12:09;98067.70;;;19.74;71.66
62038;BME280;47991;42.974;12.082;2023-08-21T02:14:36;98071.53;;;19.73;71.90
62038;BME280;47991;42.974;12.082;2023-08-21T02:17:03;98071.48;;;19.77;71.51
62038;BME280;47991;42.974;12.082;2023-08-21T02:19:32;98065.91;;;19.80;71.53
62038;BME280;47991;42.974;12.082;2023-08-21T02:21:58;98066.77;;;19.84;72.06
62038;BME280;47991;42.974;12.082;2023-08-21T02:24:25;98065.23;;;19.83;72.02
62038;BME280;47991;42.974;12.082;2023-08-21T02:26:52;98068.87;;;19.85;71.99
62038;BME280;47991;42.974;12.082;2023-08-21T02:29:19;98067.35;;;19.77;72.17
62038;BME280;47991;42.974;12.082;2023-08-21T02:31:46;98064.24;;;19.72;72.44
62038;BME280;47991;42.974;12.082;2023-08-21T02:34:12;98066.86;;;19.70;72.72
62038;BME280;47991;42.974;12.082;2023-08-21T02:36:39;98065.98;;;19.67;72.60
62038;BME280;47991;42.974;12.082;2023-08-21T02:39:06;98066.52;;;19.70;72.19
62038;BME280;47991;42.974;12.082;2023-08-21T02:41:33;98066.09;;;19.62;72.41
62038;BME280;47991;42.974;12.082;2023-08-21T02:44:00;98068.85;;;19.61;72.95
62038;BME280;47991;42.974;12.082;2023-08-21T02:46:26;98070.32;;;19.57;73.24
62038;BME280;47991;42.974;12.082;2023-08-21T02:48:53;98067.34;;;19.56;73.27
62038;BME280;47991;42.974;12.082;2023-08-21T02:51:20;98068.77;;;19.51;73.62
62038;BME280;47991;42.974;12.082;2023-08-21T02:53:47;98072.53;;;19.44;73.11
62038;BME280;47991;42.974;12.082;2023-08-21T02:56:14;98069.53;;;19.50;73.49
62038;BME280;47991;42.974;12.082;2023-08-21T02:58:41;98073.13;;;19.46;73.68
62038;BME280;47991;42.974;12.082;2023-08-21T03:01:07;98072.05;;;19.38;74.00
62038;BME280;47991;42.974;12.082;2023-08-21T03:03:34;98074.94;;;19.34;74.17
62038;BME280;47991;42.974;12.082;2023-08-21T03:06:02;98076.55;;;19.34;74.72
62038;BME280;47991;42.974;12.082;2023-08-21T03:08:29;98070.35;;;19.33;75.53
62038;BME280;47991;42.974;12.082;2023-08-21T03:10:56;98069.95;;;19.33;75.31
62038;BME280;47991;42.974;12.082;2023-08-21T03:13:23;98067.98;;;19.39;74.94
62038;BME280;47991;42.974;12.082;2023-08-21T03:15:50;98068.80;;;19.41;74.32
62038;BME280;47991;42.974;12.082;2023-08-21T03:18:17;98067.82;;;19.36;74.53
62038;BME280;47991;42.974;12.082;2023-08-21T03:20:44;98068.07;;;19.29;75.01
62038;BME280;47991;42.974;12.082;2023-08-21T03:23:15;98066.10;;;19.26;76.01
62038;BME280;47991;42.974;12.082;2023-08-21T03:25:41;98060.50;;;19.30;76.70
62038;BME280;47991;42.974;12.082;2023-08-21T03:28:08;98059.66;;;19.35;76.02
62038;BME280;47991;42.974;12.082;2023-08-21T03:30:35;98064.40;;;19.36;76.15
62038;BME280;47991;42.974;12.082;2023-08-21T03:33:02;98060.28;;;19.36;76.20
62038;BME280;47991;42.974;12.082;2023-08-21T03:35:29;98056.60;;;19.41;75.96
62038;BME280;47991;42.974;12.082;2023-08-21T03:37:56;98056.44;;;19.40;76.40
62038;BME280;47991;42.974;12.082;2023-08-21T03:40:22;98056.15;;;19.39;75.95
62038;BME280;47991;42.974;12.082;2023-08-21T03:42:49;98054.92;;;19.39;75.90
62038;BME280;47991;42.974;12.082;2023-08-21T03:45:16;98054.27;;;19.41;75.91
62038;BME280;47991;42.974;12.082;2023-08-21T03:47:43;98052.31;;;19.41;75.56
62038;BME280;47991;42.974;12.082;2023-08-21T03:50:10;98049.88;;;19.49;75.44
62038;BME280;47991;42.974;12.082;2023-08-21T03:52:37;98048.38;;;19.61;75.38
62038;BME280;47991;42.974;12.082;2023-08-21T03:55:04;98050.35;;;19.67;75.38
62038;BME280;47991;42.974;12.082;2023-08-21T03:57:31;98050.45;;;19.66;75.85
62038;BME280;47991;42.974;12.082;2023-08-21T03:59:58;98052.61;;;19.69;75.48
62038;BME280;47991;42.974;12.082;2023-08-21T04:02:25;98052.11;;;19.74;74.97
62038;BME280;47991;42.974;12.082;2023-08-21T04:04:52;98049.56;;;19.69;74.83
62038;BME280;47991;42.974;12.082;2023-08-21T04:07:19;98049.92;;;19.57;75.25
62038;BME280;47991;42.974;12.082;2023-08-21T04:09:46;98050.97;;;19.48;75.37
62038;BME280;47991;42.974;12.082;2023-08-21T04:12:13;98050.49;;;19.44;76.02
62038;BME280;47991;42.974;12.082;2023-08-21T04:14:40;98049.48;;;19.49;76.34
62038;BME280;47991;42.974;12.082;2023-08-21T04:17:06;98050.05;;;19.55;76.00
62038;BME280;47991;42.974;12.082;2023-08-21T04:19:33;98053.59;;;19.55;76.30
62038;BME280;47991;42.974;12.082;2023-08-21T04:22:01;98055.78;;;19.58;76.61
62038;BME280;47991;42.974;12.082;2023-08-21T04:24:28;98054.62;;;19.65;76.36
62038;BME280;47991;42.974;12.082;2023-08-21T04:26:54;98056.45;;;19.74;76.08
62038;BME280;47991;42.974;12.082;2023-08-21T04:29:21;98059.61;;;19.81;75.79
62038;BME280;47991;42.974;12.082;2023-08-21T04:31:48;98056.75;;;19.87;75.43
62038;BME280;47991;42.974;12.082;2023-08-21T04:34:15;98059.35;;;19.76;75.45
62038;BME280;47991;42.974;12.082;2023-08-21T04:36:42;98060.38;;;19.65;75.97
62038;BME280;47991;42.974;12.082;2023-08-21T04:39:08;98064.95;;;19.69;76.65
62038;BME280;47991;42.974;12.082;2023-08-21T04:41:35;98065.54;;;19.78;75.70
62038;BME280;47991;42.974;12.082;2023-08-21T04:44:02;98066.81;;;19.83;75.78
62038;BME280;47991;42.974;12.082;2023-08-21T04:46:29;98070.77;;;19.92;75.39
62038;BME280;47991;42.974;12.082;2023-08-21T04:48:56;98075.90;;;19.90;74.82
62038;BME280;47991;42.974;12.082;2023-08-21T04:51:24;98079.78;;;19.77;75.31
62038;BME280;47991;42.974;12.082;2023-08-21T04:53:51;98083.20;;;19.67;75.64
62038;BME280;47991;42.974;12.082;2023-08-21T04:56:18;98081.54;;;19.65;75.71
62038;BME280;47991;42.974;12.082;2023-08-21T04:58:44;98083.27;;;19.69;76.17
62038;BME280;47991;42.974;12.082;2023-08-21T05:01:11;98085.02;;;19.82;76.88
62038;BME280;47991;42.974;12.082;2023-08-21T05:03:40;98084.95;;;20.01;75.75
62038;BME280;47991;42.974;12.082;2023-08-21T05:06:06;98077.36;;;20.25;75.49
62038;BME280;47991;42.974;12.082;2023-08-21T05:08:34;98074.89;;;20.44;75.34
62038;BME280;47991;42.974;12.082;2023-08-21T05:11:01;98087.78;;;20.62;74.76
62038;BME280;47991;42.974;12.082;2023-08-21T05:13:28;98094.64;;;20.76;74.10
62038;BME280;47991;42.974;12.082;2023-08-21T05:15:56;98092.20;;;21.21;73.11
62038;BME280;47991;42.974;12.082;2023-08-21T05:18:24;98092.32;;;21.25;72.75
62038;BME280;47991;42.974;12.082;2023-08-21T05:20:54;98093.31;;;21.40;72.63
62038;BME280;47991;42.974;12.082;2023-08-21T05:23:21;98089.37;;;22.29;71.16
62038;BME280;47991;42.974;12.082;2023-08-21T05:25:48;98086.55;;;23.23;68.57
62038;BME280;47991;42.974;12.082;2023-08-21T05:28:16;98083.71;;;24.17;66.08
62038;BME280;47991;42.974;12.082;2023-08-21T05:30:43;98087.63;;;25.10;62.82
62038;BME280;47991;42.974;12.082;2023-08-21T05:33:09;98086.79;;;25.96;59.70
62038;BME280;47991;42.974;12.082;2023-08-21T05:35:37;98083.96;;;26.76;58.62
62038;BME280;47991;42.974;12.082;2023-08-21T05:38:04;98086.95;;;27.51;54.89
62038;BME280;47991;42.974;12.082;2023-08-21T05:40:31;98086.36;;;27.96;54.74
62038;BME280;47991;42.974;12.082;2023-08-21T05:42:58;98084.96;;;28.43;54.04
62038;BME280;47991;42.974;12.082;2023-08-21T05:45:25;98081.09;;;28.89;53.85
62038;BME280;47991;42.974;12.082;2023-08-21T05:47:53;98086.14;;;29.55;51.44
62038;BME280;47991;42.974;12.082;2023-08-21T05:50:20;98082.75;;;29.94;48.81
62038;BME280;47991;42.974;12.082;2023-08-21T05:52:47;98087.63;;;30.28;49.98
62038;BME280;47991;42.974;12.082;2023-08-21T05:55:15;98087.66;;;30.92;50.85
62038;BME280;47991;42.974;12.082;2023-08-21T05:57:42;98083.11;;;31.46;49.65
62038;BME280;47991;42.974;12.082;2023-08-21T06:00:09;98086.93;;;31.72;46.27
62038;BME280;47991;42.974;12.082;2023-08-21T06:02:36;98090.58;;;31.72;45.91
62038;BME280;47991;42.974;12.082;2023-08-21T06:05:03;98086.61;;;32.14;44.96
62038;BME280;47991;42.974;12.082;2023-08-21T06:07:32;98087.43;;;32.72;45.25
62038;BME280;47991;42.974;12.082;2023-08-21T06:09:59;98091.08;;;33.26;42.51
62038;BME280;47991;42.974;12.082;2023-08-21T06:12:26;98096.25;;;33.94;42.54
62038;BME280;47991;42.974;12.082;2023-08-21T06:14:52;98094.55;;;34.54;40.15
62038;BME280;47991;42.974;12.082;2023-08-21T06:17:19;98089.34;;;35.16;39.63
62038;BME280;47991;42.974;12.082;2023-08-21T06:19:46;98089.20;;;35.65;37.95
62038;BME280;47991;42.974;12.082;2023-08-21T06:22:13;98095.00;;;36.10;38.65
62038;BME280;47991;42.974;12.082;2023-08-21T06:24:41;98092.45;;;36.47;36.57
62038;BME280;47991;42.974;12.082;2023-08-21T06:27:08;98094.91;;;36.86;36.29
62038;BME280;47991;42.974;12.082;2023-08-21T06:29:35;98098.21;;;37.31;36.45
62038;BME280;47991;42.974;12.082;2023-08-21T06:32:04;98101.92;;;37.72;34.81
62038;BME280;47991;42.974;12.082;2023-08-21T06:34:31;98108.25;;;38.01;32.97
62038;BME280;47991;42.974;12.082;2023-08-21T06:36:57;98108.33;;;38.58;33.28
62038;BME280;47991;42.974;12.082;2023-08-21T06:39:25;98108.02;;;38.74;31.66
62038;BME280;47991;42.974;12.082;2023-08-21T06:41:52;98109.38;;;38.63;31.65
62038;BME280;47991;42.974;12.082;2023-08-21T06:44:20;98110.89;;;38.07;31.47
62038;BME280;47991;42.974;12.082;2023-08-21T06:46:46;98109.77;;;37.39;32.26
62038;BME280;47991;42.974;12.082;2023-08-21T06:49:14;98109.34;;;36.94;33.11
62038;BME280;47991;42.974;12.082;2023-08-21T06:51:41;98109.95;;;36.53;33.82
62038;BME280;47991;42.974;12.082;2023-08-21T06:54:07;98112.00;;;36.16;34.08
62038;BME280;47991;42.974;12.082;2023-08-21T06:56:34;98114.16;;;35.67;34.63
62038;BME280;47991;42.974;12.082;2023-08-21T06:59:01;98112.88;;;35.21;35.50
62038;BME280;47991;42.974;12.082;2023-08-21T07:01:28;98116.15;;;34.73;36.54
62038;BME280;47991;42.974;12.082;2023-08-21T07:03:55;98110.37;;;34.37;37.30
62038;BME280;47991;42.974;12.082;2023-08-21T07:06:22;98111.88;;;33.95;38.54
62038;BME280;47991;42.974;12.082;2023-08-21T07:08:49;98115.19;;;33.15;39.54
62038;BME280;47991;42.974;12.082;2023-08-21T07:11:16;98116.55;;;32.39;41.46
62038;BME280;47991;42.974;12.082;2023-08-21T07:13:43;98118.36;;;31.65;42.79
62038;BME280;47991;42.974;12.082;2023-08-21T07:16:10;98116.88;;;30.97;44.48
62038;BME280;47991;42.974;12.082;2023-08-21T07:18:38;98117.75;;;30.74;44.96
62038;BME280;47991;42.974;12.082;2023-08-21T07:21:05;98115.59;;;30.73;44.85
62038;BME280;47991;42.974;12.082;2023-08-21T07:23:32;98121.68;;;30.62;45.93
62038;BME280;47991;42.974;12.082;2023-08-21T07:26:00;98119.80;;;30.36;46.84
62038;BME280;47991;42.974;12.082;2023-08-21T07:28:27;98123.02;;;30.00;47.98
62038;BME280;47991;42.974;12.082;2023-08-21T07:30:55;98124.92;;;29.94;47.99
62038;BME280;47991;42.974;12.082;2023-08-21T07:33:24;98125.86;;;29.63;48.27
62038;BME280;47991;42.974;12.082;2023-08-21T07:35:59;98123.01;;;29.57;49.33
62038;BME280;47991;42.974;12.082;2023-08-21T07:38:27;98125.17;;;29.61;48.72
62038;BME280;47991;42.974;12.082;2023-08-21T07:41:07;98128.11;;;29.48;49.36
62038;BME280;47991;42.974;12.082;2023-08-21T07:43:41;98123.04;;;29.69;49.33
62038;BME280;47991;42.974;12.082;2023-08-21T07:46:10;98120.59;;;29.79;49.06
62038;BME280;47991;42.974;12.082;2023-08-21T07:48:42;98121.80;;;29.89;49.01
62038;BME280;47991;42.974;12.082;2023-08-21T07:51:09;98116.83;;;30.14;47.93
62038;BME280;47991;42.974;12.082;2023-08-21T07:53:37;98121.41;;;29.94;48.65
62038;BME280;47991;42.974;12.082;2023-08-21T07:56:05;98118.77;;;29.61;49.36
62038;BME280;47991;42.974;12.082;2023-08-21T07:58:32;98119.82;;;29.68;50.00
62038;BME280;47991;42.974;12.082;2023-08-21T08:00:59;98120.73;;;29.81;49.14
62038;BME280;47991;42.974;12.082;2023-08-21T08:03:27;98114.26;;;29.80;48.50
62038;BME280;47991;42.974;12.082;2023-08-21T08:05:54;98114.64;;;29.78;49.23
62038;BME280;47991;42.974;12.082;2023-08-21T08:08:21;98111.73;;;29.98;48.78
62038;BME280;47991;42.974;12.082;2023-08-21T08:10:48;98107.80;;;30.24;47.90
62038;BME280;47991;42.974;12.082;2023-08-21T08:13:15;98113.06;;;30.15;48.35
62038;BME280;47991;42.974;12.082;2023-08-21T08:15:42;98113.55;;;30.33;47.65
62038;BME280;47991;42.974;12.082;2023-08-21T08:18:13;98107.32;;;30.51;46.79
62038;BME280;47991;42.974;12.082;2023-08-21T08:20:40;98106.64;;;30.65;46.77
62038;BME280;47991;42.974;12.082;2023-08-21T08:23:08;98106.79;;;30.86;46.43
62038;BME280;47991;42.974;12.082;2023-08-21T08:25:34;98105.73;;;31.04;45.73
62038;BME280;47991;42.974;12.082;2023-08-21T08:28:01;98104.45;;;31.20;45.80
62038;BME280;47991;42.974;12.082;2023-08-21T08:33:59;98101.31;;;31.58;43.90
62038;BME280;47991;42.974;12.082;2023-08-21T08:36:27;98102.41;;;31.59;43.96
62038;BME280;47991;42.974;12.082;2023-08-21T08:38:53;98102.75;;;31.54;42.53
62038;BME280;47991;42.974;12.082;2023-08-21T08:41:30;98104.21;;;31.52;42.49
62038;BME280;47991;42.974;12.082;2023-08-21T08:44:01;98102.65;;;31.58;42.16
62038;BME280;47991;42.974;12.082;2023-08-21T08:46:29;98103.14;;;31.67;41.84
62038;BME280;47991;42.974;12.082;2023-08-21T08:48:58;98102.02;;;31.71;41.78
62038;BME280;47991;42.974;12.082;2023-08-21T08:51:28;98104.20;;;31.63;41.59
62038;BME280;47991;42.974;12.082;2023-08-21T08:53:58;98109.05;;;31.70;42.04
62038;BME280;47991;42.974;12.082;2023-08-21T08:56:25;98103.54;;;31.58;42.09
62038;BME280;47991;42.974;12.082;2023-08-21T08:58:52;98101.38;;;31.58;42.42
62038;BME280;47991;42.974;12.082;2023-08-21T09:01:19;98101.20;;;31.67;42.36
62038;BME280;47991;42.974;12.082;2023-08-21T09:03:46;98103.16;;;31.95;42.12
62038;BME280;47991;42.974;12.082;2023-08-21T09:06:13;98097.30;;;32.28;41.79
62038;BME280;47991;42.974;12.082;2023-08-21T09:08:54;98092.79;;;32.20;41.84
62038;BME280;47991;42.974;12.082;2023-08-21T09:11:22;98102.58;;;31.82;41.99
62038;BME280;47991;42.974;12.082;2023-08-21T09:13:53;98097.64;;;31.87;42.43
62038;BME280;47991;42.974;12.082;2023-08-21T09:16:23;98098.30;;;32.28;41.73
62038;BME280;47991;42.974;12.082;2023-08-21T09:18:54;98091.75;;;32.26;40.88
62038;BME280;47991;42.974;12.082;2023-08-21T09:21:22;98091.16;;;31.98;41.67
62038;BME280;47991;42.974;12.082;2023-08-21T09:23:57;98090.80;;;32.13;41.08
62038;BME280;47991;42.974;12.082;2023-08-21T09:26:25;98089.59;;;32.07;40.48
62038;BME280;47991;42.974;12.082;2023-08-21T09:28:53;98085.45;;;31.67;41.17
62038;BME280;47991;42.974;12.082;2023-08-21T09:31:31;98091.12;;;31.92;41.46
62038;BME280;47991;42.974;12.082;2023-08-21T09:33:59;98087.59;;;32.31;40.64
62038;BME280;47991;42.974;12.082;2023-08-21T09:36:27;98088.61;;;32.26;39.97
62038;BME280;47991;42.974;12.082;2023-08-21T09:38:55;98083.22;;;32.23;40.55
62038;BME280;47991;42.974;12.082;2023-08-21T09:41:23;98084.91;;;32.47;40.07
62038;BME280;47991;42.974;12.082;2023-08-21T09:43:50;98081.90;;;32.64;39.63
62038;BME280;47991;42.974;12.082;2023-08-21T09:46:23;98074.39;;;32.57;39.27
62038;BME280;47991;42.974;12.082;2023-08-21T09:48:52;98078.96;;;32.38;40.20
62038;BME280;47991;42.974;12.082;2023-08-21T09:51:20;98071.23;;;32.76;39.26
62038;BME280;47991;42.974;12.082;2023-08-21T09:53:49;98066.40;;;32.92;39.06
62038;BME280;47991;42.974;12.082;2023-08-21T09:56:19;98070.91;;;33.12;38.72
62038;BME280;47991;42.974;12.082;2023-08-21T09:58:50;98068.48;;;32.95;38.33
62038;BME280;47991;42.974;12.082;2023-08-21T10:01:20;98067.98;;;33.04;38.15
62038;BME280;47991;42.974;12.082;2023-08-21T10:03:48;98070.64;;;33.03;37.82
62038;BME280;47991;42.974;12.082;2023-08-21T10:06:17;98071.54;;;32.68;38.07
62038;BME280;47991;42.974;12.082;2023-08-21T10:08:48;98069.30;;;32.46;38.43
62038;BME280;47991;42.974;12.082;2023-08-21T10:11:20;98068.11;;;32.84;38.24
62038;BME280;47991;42.974;12.082;2023-08-21T10:13:47;98070.05;;;33.10;37.33
62038;BME280;47991;42.974;12.082;2023-08-21T10:16:17;98071.40;;;33.19;36.93
62038;BME280;47991;42.974;12.082;2023-08-21T10:18:45;98061.50;;;32.81;37.33
62038;BME280;47991;42.974;12.082;2023-08-21T10:21:20;98060.97;;;32.63;37.63
62038;BME280;47991;42.974;12.082;2023-08-21T10:23:48;98059.86;;;33.07;37.80
62038;BME280;47991;42.974;12.082;2023-08-21T10:26:19;98059.85;;;33.33;37.34
62038;BME280;47991;42.974;12.082;2023-08-21T10:28:51;98058.15;;;33.55;36.62
62038;BME280;47991;42.974;12.082;2023-08-21T10:31:34;98058.30;;;33.33;36.47
62038;BME280;47991;42.974;12.082;2023-08-21T10:34:12;98056.73;;;33.53;37.19
62038;BME280;47991;42.974;12.082;2023-08-21T10:39:16;98047.81;;;33.96;35.63
62038;BME280;47991;42.974;12.082;2023-08-21T10:42:10;98043.56;;;34.22;35.68
62038;BME280;47991;42.974;12.082;2023-08-21T10:49:53;98036.85;;;34.50;34.06
62038;BME280;47991;42.974;12.082;2023-08-21T10:54:55;98035.52;;;34.12;34.29
62038;BME280;47991;42.974;12.082;2023-08-21T10:57:23;98028.79;;;33.68;34.73
62038;BME280;47991;42.974;12.082;2023-08-21T10:59:52;98028.00;;;33.96;34.58
62038;BME280;47991;42.974;12.082;2023-08-21T11:16:09;98013.09;;;34.26;34.65
62038;BME280;47991;42.974;12.082;2023-08-21T11:23:45;98014.11;;;34.06;34.08
62038;BME280;47991;42.974;12.082;2023-08-21T11:26:11;98011.52;;;34.41;33.85
62038;BME280;47991;42.974;12.082;2023-08-21T11:28:38;98011.30;;;34.42;33.64
62038;BME280;47991;42.974;12.082;2023-08-21T11:31:05;98010.94;;;34.71;33.52
62038;BME280;47991;42.974;12.082;2023-08-21T11:33:32;98011.73;;;34.82;33.05
62038;BME280;47991;42.974;12.082;2023-08-21T11:36:00;98008.10;;;34.97;32.63
62038;BME280;47991;42.974;12.082;2023-08-21T11:38:27;98009.64;;;35.05;32.65
62038;BME280;47991;42.974;12.082;2023-08-21T11:40:58;98012.45;;;34.85;32.86
62038;BME280;47991;42.974;12.082;2023-08-21T11:43:39;98012.13;;;34.69;33.29
62038;BME280;47991;42.974;12.082;2023-08-21T11:46:08;98010.52;;;34.44;33.62
62038;BME280;47991;42.974;12.082;2023-08-21T11:48:37;98010.09;;;34.70;33.53
62038;BME280;47991;42.974;12.082;2023-08-21T11:51:04;98008.20;;;35.02;33.35
62038;BME280;47991;42.974;12.082;2023-08-21T11:56:01;98013.13;;;34.86;33.17
62038;BME280;47991;42.974;12.082;2023-08-21T11:58:28;98011.90;;;35.03;32.16
62038;BME280;47991;42.974;12.082;2023-08-21T12:01:00;98012.29;;;35.28;32.53
62038;BME280;47991;42.974;12.082;2023-08-21T12:03:27;98009.52;;;35.50;32.25
62038;BME280;47991;42.974;12.082;2023-08-21T12:05:54;98003.36;;;35.41;32.20
62038;BME280;47991;42.974;12.082;2023-08-21T12:08:21;98003.73;;;35.33;32.36
62038;BME280;47991;42.974;12.082;2023-08-21T12:10:51;98000.93;;;35.38;32.54
62038;BME280;47991;42.974;12.082;2023-08-21T12:13:20;98004.23;;;35.43;32.82
62038;BME280;47991;42.974;12.082;2023-08-21T12:15:46;98002.34;;;35.67;32.41
62038;BME280;47991;42.974;12.082;2023-08-21T12:18:12;97995.04;;;35.67;32.50
62038;BME280;47991;42.974;12.082;2023-08-21T12:20:39;97994.89;;;35.55;32.29
62038;BME280;47991;42.974;12.082;2023-08-21T12:23:05;97994.64;;;35.35;32.34
62038;BME280;47991;42.974;12.082;2023-08-21T12:25:31;97987.44;;;35.58;32.47
62038;BME280;47991;42.974;12.082;2023-08-21T12:27:58;97986.29;;;35.93;32.16
62038;BME280;47991;42.974;12.082;2023-08-21T12:30:25;97983.44;;;35.70;31.72
62038;BME280;47991;42.974;12.082;2023-08-21T12:32:51;97984.09;;;35.17;31.64
62038;BME280;47991;42.974;12.082;2023-08-21T12:35:17;97977.84;;;35.09;31.53
62038;BME280;47991;42.974;12.082;2023-08-21T12:37:43;97975.45;;;34.96;31.95
62038;BME280;47991;42.974;12.082;2023-08-21T12:40:10;97973.74;;;35.24;32.14
62038;BME280;47991;42.974;12.082;2023-08-21T12:42:36;97974.29;;;35.49;31.83
62038;BME280;47991;42.974;12.082;2023-08-21T12:45:03;97971.13;;;35.65;31.49
62038;BME280;47991;42.974;12.082;2023-08-21T12:47:29;97972.31;;;35.46;30.57
62038;BME280;47991;42.974;12.082;2023-08-21T12:49:56;97969.10;;;35.09;31.46
62038;BME280;47991;42.974;12.082;2023-08-21T12:52:22;97961.98;;;34.92;32.05
62038;BME280;47991;42.974;12.082;2023-08-21T12:54:48;97961.73;;;35.13;32.02
62038;BME280;47991;42.974;12.082;2023-08-21T12:57:14;97956.48;;;35.20;31.52
62038;BME280;47991;42.974;12.082;2023-08-21T12:59:42;97949.83;;;35.46;31.62
62038;BME280;47991;42.974;12.082;2023-08-21T13:02:09;97952.40;;;35.83;31.35
62038;BME280;47991;42.974;12.082;2023-08-21T13:04:35;97948.21;;;35.97;30.61
62038;BME280;47991;42.974;12.082;2023-08-21T13:07:01;97943.20;;;35.83;30.99
62038;BME280;47991;42.974;12.082;2023-08-21T13:09:29;97942.30;;;36.30;30.63
62038;BME280;47991;42.974;12.082;2023-08-21T13:42:38;97925.56;;;37.49;28.20
62038;BME280;47991;42.974;12.082;2023-08-21T13:45:11;97917.77;;;37.45;28.13
62038;BME280;47991;42.974;12.082;2023-08-21T13:47:43;97913.17;;;37.47;27.61
62038;BME280;47991;42.974;12.082;2023-08-21T13:50:10;97912.58;;;37.29;27.79
62038;BME280;47991;42.974;12.082;2023-08-21T13:52:37;97909.17;;;37.44;27.83
62038;BME280;47991;42.974;12.082;2023-08-21T13:55:08;97907.33;;;37.75;28.28
62038;BME280;47991;42.974;12.082;2023-08-21T13:57:36;97902.38;;;37.97;26.69
62038;BME280;47991;42.974;12.082;2023-08-21T14:00:05;97905.64;;;37.53;26.86
62038;BME280;47991;42.974;12.082;2023-08-21T14:02:34;97905.45;;;36.90;27.06